Time;durP1;ratioP1;P1;durP2;ratioP2;P2;SDS_P1;SDS_P2;PMS_P1;PMS_P2;Temp;Humidity;BMP_temperature;BMP_pressure;BME280_temperature;BME280_humidity;BME280_pressure;Samples;Min_cycle;Max_cycle;Signal;HPM_P1;HPM_P2
2022/07/29 00:00:44;;;;;;;4.43;1.80;;;;;;;;;;5046848;28;20191;-54
2022/07/29 00:03:11;;;;;;;4.10;2.20;;;19.60;1.00;;;;;;5047860;28;20450;-56
2022/07/29 00:05:39;;;;;;;3.73;1.80;;;19.80;1.00;;;;;;5048285;28;20952;-54
2022/07/29 00:08:05;;;;;;;4.97;1.80;;;19.90;1.00;;;;;;5051320;28;21341;-53
2022/07/29 00:10:31;;;;;;;5.33;1.97;;;19.70;1.00;;;;;;5048769;28;20478;-56
2022/07/29 00:12:57;;;;;;;3.33;1.87;;;19.80;1.00;;;;;;5049206;28;20189;-54
2022/07/29 00:15:25;;;;;;;6.03;2.07;;;19.70;1.00;;;;;;5048715;28;20188;-56
2022/07/29 00:17:51;;;;;;;5.13;1.87;;;19.70;1.00;;;;;;5048826;28;20211;-53
2022/07/29 00:20:17;;;;;;;3.70;2.17;;;;;;;;;;5049332;28;20442;-55
2022/07/29 00:22:43;;;;;;;3.00;2.03;;;19.50;1.00;;;;;;5049573;28;20192;-54
2022/07/29 00:25:09;;;;;;;1.90;1.63;;;19.50;1.00;;;;;;5049938;28;20430;-55
2022/07/29 00:27:35;;;;;;;2.63;2.07;;;19.50;1.00;;;;;;5046796;28;20235;-55
2022/07/29 00:30:03;;;;;;;5.40;2.20;;;19.40;1.00;;;;;;5045902;28;20189;-55
2022/07/29 00:32:29;;;;;;;3.90;2.00;;;;;;;;;;5045789;28;20454;-54
2022/07/29 00:37:39;;;;;;;3.50;2.23;;;19.40;1.00;;;;;;5042665;28;20537;-55
2022/07/29 00:40:06;;;;;;;3.80;1.63;;;19.30;1.00;;;;;;5048007;28;20529;-53
2022/07/29 00:42:44;;;;;;;3.53;2.17;;;19.20;1.00;;;;;;5048940;28;20191;-56
2022/07/29 00:45:10;;;;;;;4.33;1.90;;;;;;;;;;5048776;28;20947;-55
2022/07/29 00:47:36;;;;;;;2.70;2.10;;;19.10;1.00;;;;;;5048482;28;20465;-55
2022/07/29 00:50:03;;;;;;;2.40;1.80;;;19.10;1.00;;;;;;5048695;28;20807;-55
2022/07/29 00:52:29;;;;;;;4.80;2.50;;;19.00;1.00;;;;;;5046957;28;20201;-56
2022/07/29 00:54:55;;;;;;;4.37;2.27;;;19.00;1.00;;;;;;5048322;28;21014;-54
2022/07/29 00:57:21;;;;;;;4.40;2.63;;;;;;;;;;5049761;28;20642;-53
2022/07/29 00:59:47;;;;;;;6.33;2.10;;;19.00;1.00;;;;;;5048658;28;20444;-52
2022/07/29 01:02:13;;;;;;;2.73;1.73;;;18.90;1.00;;;;;;5048001;28;20524;-55
2022/07/29 01:04:39;;;;;;;3.90;2.20;;;18.90;1.00;;;;;;5047123;28;20511;-53
2022/07/29 01:07:05;;;;;;;7.30;2.37;;;;;;;;;;5047645;28;20212;-56
2022/07/29 01:09:33;;;;;;;4.27;2.50;;;18.90;1.00;;;;;;5049716;28;21244;-56
2022/07/29 01:11:59;;;;;;;4.87;2.80;;;19.00;1.00;;;;;;5047183;28;20498;-55
2022/07/29 01:14:26;;;;;;;3.80;2.73;;;18.90;1.00;;;;;;5048783;28;20450;-52
2022/07/29 01:17:01;;;;;;;8.17;2.87;;;18.90;1.00;;;;;;5046952;28;20504;-52
2022/07/29 01:19:53;;;;;;;4.37;2.30;;;18.90;1.00;;;;;;5048303;28;20473;-51
2022/07/29 01:22:27;;;;;;;4.73;1.93;;;18.80;1.00;;;;;;5046393;28;20453;-55
2022/07/29 01:25:03;;;;;;;4.33;2.20;;;18.80;1.00;;;;;;5049107;28;20520;-55
2022/07/29 01:27:47;;;;;;;2.77;2.40;;;18.90;1.00;;;;;;5044122;28;20465;-56
2022/07/29 01:30:13;;;;;;;5.53;2.27;;;18.60;1.00;;;;;;5049069;28;20445;-55
2022/07/29 01:32:40;;;;;;;5.67;2.67;;;18.70;1.00;;;;;;5043923;28;20924;-56
2022/07/29 01:35:09;;;;;;;4.63;2.87;;;18.70;1.00;;;;;;5046669;28;20489;-54
2022/07/29 01:37:35;;;;;;;3.30;2.73;;;;;;;;;;5048526;28;20458;-57
2022/07/29 01:40:03;;;;;;;6.33;3.73;;;18.70;1.00;;;;;;5044731;28;20450;-54
2022/07/29 01:42:43;;;;;;;4.60;2.73;;;18.70;1.00;;;;;;5047333;28;20454;-54
2022/07/29 01:45:16;;;;;;;6.17;3.33;;;18.80;1.00;;;;;;5048581;28;20450;-55
2022/07/29 01:47:54;;;;;;;7.80;3.60;;;18.80;1.00;;;;;;5050981;28;21078;-55
2022/07/29 01:50:23;;;;;;;9.57;3.83;;;18.60;1.00;;;;;;5051590;28;20835;-54
2022/07/29 01:52:59;;;;;;;5.57;3.43;;;18.60;1.00;;;;;;5050274;28;20442;-56
2022/07/29 01:55:31;;;;;;;5.47;3.80;;;18.60;1.00;;;;;;5052037;28;20502;-54
2022/07/29 01:58:00;;;;;;;9.60;3.93;;;18.70;1.00;;;;;;5049455;28;20488;-55
2022/07/29 02:00:26;;;;;;;5.73;3.83;;;18.60;1.00;;;;;;5040651;28;21044;-53
2022/07/29 02:02:54;;;;;;;6.00;3.83;;;18.70;1.00;;;;;;5051112;28;20553;-54
2022/07/29 02:05:22;;;;;;;8.27;5.30;;;18.50;1.00;;;;;;5050147;28;20458;-55
2022/07/29 02:07:50;;;;;;;6.70;4.93;;;18.60;1.00;;;;;;5050514;28;20520;-57
2022/07/29 02:10:20;;;;;;;9.90;5.97;;;18.70;1.00;;;;;;5048931;28;20785;-55
2022/07/29 02:12:47;;;;;;;11.80;7.00;;;18.60;1.00;;;;;;5049038;28;21317;-54
2022/07/29 02:15:14;;;;;;;12.50;7.30;;;18.60;1.00;;;;;;5050277;28;20507;-53
2022/07/29 02:17:52;;;;;;;11.37;8.10;;;18.20;1.00;;;;;;5050054;28;20446;-55
2022/07/29 02:20:18;;;;;;;12.03;8.87;;;;;;;;;;5050567;28;20446;-55
2022/07/29 02:22:46;;;;;;;11.67;9.17;;;18.60;1.00;;;;;;5047824;28;20446;-56
2022/07/29 02:25:13;;;;;;;13.70;9.73;;;18.50;1.00;;;;;;5050939;28;20446;-53
2022/07/29 02:27:41;;;;;;;12.83;10.00;;;18.50;1.00;;;;;;5048973;28;20477;-55
2022/07/29 02:30:09;;;;;;;13.20;9.87;;;18.40;1.00;;;;;;5043512;28;20502;-54
2022/07/29 02:32:37;;;;;;;18.47;11.10;;;18.30;1.00;;;;;;5049454;28;20442;-55
2022/07/29 02:35:04;;;;;;;11.53;10.17;;;18.30;1.00;;;;;;5049306;28;21042;-56
2022/07/29 02:37:31;;;;;;;11.43;9.50;;;22.40;1.00;;;;;;5051971;28;20454;-55
2022/07/29 02:39:58;;;;;;;12.60;10.17;;;18.30;1.00;;;;;;5050698;28;20461;-54
2022/07/29 02:42:26;;;;;;;13.93;9.20;;;18.30;1.00;;;;;;5049587;28;20502;-56
2022/07/29 02:44:52;;;;;;;11.37;9.90;;;18.30;1.00;;;;;;5051392;28;20465;-52
2022/07/29 02:47:35;;;;;;;10.77;9.17;;;18.30;1.00;;;;;;5051454;28;20466;-52
2022/07/29 02:50:15;;;;;;;11.30;9.43;;;18.40;1.00;;;;;;5049499;28;20447;-56
2022/07/29 02:52:47;;;;;;;13.10;9.80;;;18.30;1.00;;;;;;5049283;28;20788;-55
2022/07/29 02:55:16;;;;;;;12.37;10.87;;;;;;;;;;5049692;28;20449;-53
2022/07/29 02:57:46;;;;;;;15.50;11.00;;;18.20;1.00;;;;;;5046884;28;20466;-54
2022/07/29 03:00:12;;;;;;;13.17;9.57;;;18.30;1.00;;;;;;5049241;28;20462;-55
2022/07/29 03:02:45;;;;;;;11.83;8.30;;;18.30;1.00;;;;;;5050203;28;20434;-56
2022/07/29 03:05:18;;;;;;;15.17;8.67;;;18.30;1.00;;;;;;5046106;28;20824;-55
2022/07/29 03:07:47;;;;;;;11.90;8.60;;;18.20;1.00;;;;;;5050039;28;20469;-56
2022/07/29 03:10:13;;;;;;;13.53;11.87;;;;;;;;;;5048687;28;20450;-55
2022/07/29 03:12:40;;;;;;;12.47;11.17;;;18.20;1.00;;;;;;5048221;28;20583;-54
2022/07/29 03:15:06;;;;;;;15.77;13.20;;;18.10;1.00;;;;;;5050035;28;21161;-54
2022/07/29 03:17:33;;;;;;;17.80;13.40;;;18.20;1.00;;;;;;5049951;28;20466;-54
2022/07/29 03:19:59;;;;;;;16.57;13.20;;;18.20;1.00;;;;;;5048778;28;20451;-55
2022/07/29 03:22:25;;;;;;;25.33;14.37;;;18.20;1.00;;;;;;5048727;28;20446;-56
2022/07/29 03:24:51;;;;;;;16.80;13.00;;;18.10;1.00;;;;;;5048884;28;20982;-54
2022/07/29 03:27:17;;;;;;;16.10;14.47;;;;;;;;;;5049243;28;20462;-53
2022/07/29 03:29:42;;;;;;;15.60;13.43;;;18.10;1.00;;;;;;5049126;28;20553;-54
2022/07/29 03:32:08;;;;;;;18.00;15.10;;;18.20;1.00;;;;;;5048726;28;20438;-55
2022/07/29 03:34:34;;;;;;;16.17;14.20;;;18.20;1.00;;;;;;5047171;28;20299;-57
2022/07/29 03:37:00;;;;;;;22.97;19.40;;;;;;;;;;5048484;28;20184;-54
2022/07/29 03:39:31;;;;;;;25.57;22.87;;;18.40;1.00;;;;;;5048887;28;20537;-56
2022/07/29 03:42:00;;;;;;;24.63;21.33;;;18.20;1.00;;;;;;5046555;28;20498;-54
2022/07/29 03:44:26;;;;;;;24.93;21.77;;;;;;;;;;5049698;28;20746;-55
2022/07/29 03:46:55;;;;;;;24.83;20.40;;;18.00;1.00;;;;;;5047231;28;20474;-56
2022/07/29 03:49:23;;;;;;;25.37;21.37;;;18.40;1.00;;;;;;5049820;28;20497;-56
2022/07/29 03:51:49;;;;;;;29.13;22.97;;;;;;;;;;5047678;28;20458;-56
2022/07/29 03:54:14;;;;;;;29.00;20.93;;;18.20;1.00;;;;;;5048551;28;20459;-55
2022/07/29 03:56:46;;;;;;;26.47;21.50;;;18.40;1.00;;;;;;5049030;28;20461;-56
2022/07/29 03:59:13;;;;;;;23.53;21.13;;;18.00;1.00;;;;;;5049583;28;20184;-53
2022/07/29 04:01:39;;;;;;;23.03;18.60;;;18.10;1.00;;;;;;5043445;28;20455;-53
2022/07/29 04:04:05;;;;;;;20.13;17.30;;;18.10;1.00;;;;;;5047863;28;20541;-53
2022/07/29 04:06:51;;;;;;;22.07;19.67;;;18.20;1.00;;;;;;5044739;28;20584;-59
2022/07/29 04:09:16;;;;;;;22.43;17.97;;;18.20;1.00;;;;;;5048328;28;20183;-56
2022/07/29 04:11:42;;;;;;;20.87;18.10;;;;;;;;;;5048517;28;20449;-56
2022/07/29 04:14:08;;;;;;;26.40;22.07;;;18.40;1.00;;;;;;5049763;28;20187;-53
2022/07/29 04:16:34;;;;;;;29.10;22.87;;;;;;;;;;5046730;28;20488;-54
2022/07/29 04:19:00;;;;;;;32.03;24.63;;;;;;;;;;5049558;28;20176;-52
2022/07/29 04:21:26;;;;;;;28.80;23.60;;;18.50;1.00;;;;;;5054411;28;20504;-53
2022/07/29 04:23:51;;;;;;;29.40;24.23;;;18.60;1.00;;;;;;5049736;28;20525;-56
2022/07/29 04:26:17;;;;;;;29.87;23.30;;;18.60;1.00;;;;;;5048763;28;20250;-52
2022/07/29 04:28:43;;;;;;;25.37;22.73;;;18.60;1.00;;;;;;5048730;28;20219;-55
2022/07/29 04:31:09;;;;;;;25.40;21.63;;;18.70;1.00;;;;;;5049047;28;20448;-55
2022/07/29 04:33:35;;;;;;;23.77;19.97;;;18.70;1.00;;;;;;5048378;28;20607;-54
2022/07/29 04:36:00;;;;;;;27.13;20.97;;;19.00;1.00;;;;;;5048419;28;20558;-56
2022/07/29 04:38:26;;;;;;;28.07;22.20;;;18.80;1.00;;;;;;5048957;28;20227;-54
2022/07/29 04:40:52;;;;;;;24.50;19.60;;;18.90;1.00;;;;;;5048159;28;20192;-54
2022/07/29 04:43:17;;;;;;;23.70;19.67;;;18.90;1.00;;;;;;5048273;28;20273;-54
2022/07/29 04:45:43;;;;;;;22.60;18.50;;;19.00;1.00;;;;;;5049189;28;20200;-55
2022/07/29 04:48:09;;;;;;;20.67;17.40;;;19.10;1.00;;;;;;5047875;28;20207;-57
2022/07/29 04:50:35;;;;;;;22.73;19.60;;;;;;;;;;5047429;28;20661;-53
2022/07/29 04:53:00;;;;;;;21.90;19.67;;;19.20;1.00;;;;;;5045421;28;20188;-56
2022/07/29 04:55:26;;;;;;;23.33;18.43;;;19.30;1.00;;;;;;5048500;28;20492;-52
2022/07/29 04:57:51;;;;;;;23.60;19.07;;;19.30;1.00;;;;;;5047804;28;20184;-54
2022/07/29 05:00:17;;;;;;;18.70;16.80;;;19.40;1.00;;;;;;5047060;28;20274;-52
2022/07/29 05:02:43;;;;;;;20.70;16.10;;;19.30;1.00;;;;;;5047405;28;20645;-55
2022/07/29 05:05:08;;;;;;;18.20;16.37;;;19.40;1.00;;;;;;5045535;28;20263;-54
2022/07/29 05:07:35;;;;;;;17.80;15.93;;;;;;;;;;5047429;28;20239;-54
2022/07/29 05:10:01;;;;;;;20.77;18.53;;;;;;;;;;5048472;28;20188;-56
2022/07/29 05:12:27;;;;;;;23.20;20.40;;;;;;;;;;5048578;28;20855;-53
2022/07/29 05:14:53;;;;;;;20.93;18.70;;;19.80;1.00;;;;;;5058661;28;20453;-53
2022/07/29 05:17:19;;;;;;;21.27;18.53;;;19.90;1.00;;;;;;5060728;28;20454;-54
2022/07/29 05:19:44;;;;;;;23.43;19.70;;;19.90;1.00;;;;;;5051424;28;20525;-58
2022/07/29 05:22:10;;;;;;;22.07;18.83;;;20.00;1.00;;;;;;5051327;28;20197;-56
2022/07/29 05:24:36;;;;;;;23.50;21.00;;;;;;;;;;5052615;28;20180;-58
2022/07/29 05:27:02;;;;;;;23.50;19.07;;;;;;;;;;5052395;28;20218;-56
2022/07/29 05:29:28;;;;;;;22.03;18.30;;;;;;;;;;5053058;28;20465;-57
2022/07/29 05:31:53;;;;;;;23.43;19.20;;;20.00;1.00;;;;;;5052440;28;20438;-57
2022/07/29 05:34:19;;;;;;;20.47;18.37;;;20.00;1.00;;;;;;5051518;28;20466;-56
2022/07/29 05:36:46;;;;;;;22.83;17.00;;;20.10;1.00;;;;;;5050889;28;20665;-57
2022/07/29 05:39:12;;;;;;;21.27;18.17;;;;;;;;;;5052429;28;20465;-57
2022/07/29 05:41:39;;;;;;;20.73;18.70;;;;;;;;;;5052379;28;20607;-57
2022/07/29 05:44:05;;;;;;;27.40;18.17;;;20.30;1.00;;;;;;5051758;28;20450;-56
2022/07/29 05:46:31;;;;;;;19.20;17.23;;;20.30;1.00;;;;;;5052670;28;20435;-57
2022/07/29 05:48:56;;;;;;;21.87;17.03;;;20.30;1.00;;;;;;5051996;28;20664;-56
2022/07/29 05:51:22;;;;;;;18.63;16.37;;;;;;;;;;5050924;28;20207;-57
2022/07/29 05:53:48;;;;;;;18.83;16.63;;;20.60;1.00;;;;;;5050985;28;20692;-58
2022/07/29 05:56:14;;;;;;;20.60;16.83;;;;;;;;;;5051943;28;20442;-57
2022/07/29 05:58:39;;;;;;;22.37;17.40;;;20.80;1.00;;;;;;5051763;28;20214;-56
2022/07/29 06:01:05;;;;;;;20.63;17.13;;;20.90;1.00;;;;;;5050495;28;20952;-58
2022/07/29 06:03:30;;;;;;;22.43;18.27;;;21.10;1.00;;;;;;5051614;28;20180;-57
2022/07/29 06:05:57;;;;;;;19.67;17.57;;;;;;;;;;5050364;28;20203;-58
2022/07/29 06:08:23;;;;;;;25.17;20.47;;;;;;;;;;5052109;28;20254;-57
2022/07/29 06:10:50;;;;;;;22.93;19.03;;;21.20;1.00;;;;;;5052387;28;20450;-57
2022/07/29 06:13:15;;;;;;;25.67;18.90;;;21.30;1.00;;;;;;5051406;28;20446;-58
2022/07/29 06:15:42;;;;;;;22.73;18.40;;;21.50;1.00;;;;;;5050924;28;20978;-57
2022/07/29 06:18:09;;;;;;;22.87;19.10;;;;;;;;;;5050323;28;20224;-57
2022/07/29 06:20:35;;;;;;;20.77;18.50;;;;;;;;;;5050784;28;20462;-58
2022/07/29 06:23:01;;;;;;;27.53;17.73;;;21.70;1.00;;;;;;5050043;28;20931;-57
2022/07/29 06:25:32;;;;;;;23.57;19.07;;;21.90;1.00;;;;;;5049424;28;20485;-56
2022/07/29 06:27:57;;;;;;;24.37;20.30;;;22.00;1.00;;;;;;5059205;28;20681;-57
2022/07/29 06:30:23;;;;;;;26.10;19.70;;;22.20;1.00;;;;;;5049130;28;20486;-58
2022/07/29 06:32:49;;;;;;;21.20;18.07;;;22.20;1.00;;;;;;5050874;28;20271;-58
2022/07/29 06:35:14;;;;;;;28.93;18.33;;;22.30;1.00;;;;;;5055255;28;20227;-58
2022/07/29 06:37:40;;;;;;;23.10;18.50;;;;;;;;;;5049024;28;20202;-58
2022/07/29 06:42:51;;;;;;;21.93;18.57;;;22.80;1.00;;;;;;5047230;28;20445;-58
2022/07/29 06:45:17;;;;;;;20.13;17.57;;;;;;;;;;5050755;28;20438;-58
2022/07/29 06:47:43;;;;;;;28.93;18.97;;;22.90;1.00;;;;;;5050648;28;20299;-58
2022/07/29 06:50:12;;;;;;;27.47;18.13;;;;;;;;;;5051179;28;20518;-58
2022/07/29 06:52:38;;;;;;;21.27;17.90;;;23.20;1.00;;;;;;5050240;28;20688;-58
2022/07/29 06:55:04;;;;;;;20.57;18.43;;;;;;;;;;5051205;28;20427;-58
2022/07/29 06:57:30;;;;;;;18.70;16.53;;;23.30;1.00;;;;;;5049721;28;20446;-57
2022/07/29 06:59:58;;;;;;;20.23;16.33;;;23.40;1.00;;;;;;5051287;28;20498;-58
2022/07/29 07:02:24;;;;;;;16.80;15.07;;;23.50;1.00;;;;;;5052554;28;20218;-58
2022/07/29 07:04:50;;;;;;;17.07;15.17;;;23.60;1.00;;;;;;5049083;28;20493;-58
2022/07/29 07:07:15;;;;;;;17.67;15.80;;;23.90;1.00;;;;;;5051373;28;20322;-58
2022/07/29 07:09:41;;;;;;;22.13;16.30;;;24.00;1.00;;;;;;5064374;28;20192;-58
2022/07/29 07:12:07;;;;;;;25.70;15.93;;;24.20;1.00;;;;;;5049841;28;20188;-60
2022/07/29 07:14:33;;;;;;;18.80;16.97;;;;;;;;;;5051311;28;20192;-57
2022/07/29 07:17:00;;;;;;;22.77;16.80;;;24.30;1.00;;;;;;5051185;28;20517;-58
2022/07/29 07:19:26;;;;;;;21.23;16.30;;;24.50;1.00;;;;;;5049872;28;20977;-58
2022/07/29 07:21:53;;;;;;;18.53;16.07;;;24.40;1.00;;;;;;5047574;28;20782;-58
2022/07/29 07:24:18;;;;;;;20.50;15.07;;;24.50;1.00;;;;;;5050309;28;20458;-59
2022/07/29 07:26:44;;;;;;;20.47;16.30;;;24.40;1.00;;;;;;5050499;28;20430;-58
2022/07/29 07:29:11;;;;;;;16.83;15.07;;;;;;;;;;5048878;28;20218;-56
2022/07/29 07:31:37;;;;;;;17.10;14.83;;;24.40;1.00;;;;;;5055273;28;20652;-56
2022/07/29 07:34:03;;;;;;;16.00;14.40;;;;;;;;;;5050233;28;20439;-57
2022/07/29 07:36:29;;;;;;;17.93;13.90;;;24.40;1.00;;;;;;5048808;28;20446;-57
2022/07/29 07:38:55;;;;;;;19.73;13.73;;;24.60;1.00;;;;;;5050010;28;20433;-59
2022/07/29 07:41:22;;;;;;;18.93;14.17;;;24.70;1.00;;;;;;5049879;28;20626;-58
2022/07/29 07:43:48;;;;;;;15.77;12.97;;;24.70;1.00;;;;;;5050103;28;20199;-58
2022/07/29 07:46:14;;;;;;;18.93;13.47;;;24.70;1.00;;;;;;5049893;28;20499;-58
2022/07/29 07:48:40;;;;;;;20.83;13.90;;;;;;;;;;5049790;28;20554;-57
2022/07/29 07:51:07;;;;;;;17.00;13.10;;;25.30;1.00;;;;;;5048288;28;20515;-58
2022/07/29 07:53:32;;;;;;;15.00;12.00;;;24.80;1.00;;;;;;5049787;28;20446;-58
2022/07/29 07:55:58;;;;;;;12.67;11.47;;;25.00;1.00;;;;;;5048949;28;20543;-57
2022/07/29 07:58:24;;;;;;;15.13;11.73;;;24.80;1.00;;;;;;5049445;28;20192;-57
2022/07/29 08:00:49;;;;;;;14.27;11.90;;;24.70;1.00;;;;;;5048432;28;20203;-57
2022/07/29 08:03:15;;;;;;;14.50;13.00;;;24.70;1.00;;;;;;5049699;28;20198;-57
2022/07/29 08:05:41;;;;;;;16.47;11.90;;;24.90;1.00;;;;;;5049125;28;20214;-57
2022/07/29 08:08:07;;;;;;;17.77;11.90;;;;;;;;;;5049237;28;20230;-58
2022/07/29 08:13:17;;;;;;;13.43;11.97;;;;;;;;;;5061119;28;20436;-57
2022/07/29 08:15:45;;;;;;;15.50;10.40;;;;;;;;;;5050588;28;20479;-58
2022/07/29 08:18:12;;;;;;;18.50;11.33;;;26.50;1.00;;;;;;5049043;28;20442;-59
2022/07/29 08:20:38;;;;;;;14.00;11.00;;;26.70;1.00;;;;;;5063300;28;20449;-58
2022/07/29 08:23:05;;;;;;;17.90;11.50;;;;;;;;;;5048705;28;20454;-58
2022/07/29 08:25:32;;;;;;;13.67;11.60;;;;;;;;;;5047525;28;20818;-57
2022/07/29 08:27:58;;;;;;;16.27;11.53;;;27.30;1.00;;;;;;5053009;28;20473;-58
2022/07/29 08:30:24;;;;;;;16.33;12.70;;;;;;;;;;5047529;28;20522;-57
2022/07/29 08:32:52;;;;;;;16.80;13.50;;;27.80;1.00;;;;;;5047371;28;20855;-58
2022/07/29 08:35:19;;;;;;;14.60;11.43;;;27.90;1.00;;;;;;5048928;28;21040;-57
2022/07/29 08:37:44;;;;;;;14.63;11.87;;;;;;;;;;5048250;28;20446;-57
2022/07/29 08:40:11;;;;;;;13.57;11.63;;;28.10;1.00;;;;;;5048348;28;20571;-58
2022/07/29 08:42:36;;;;;;;15.63;11.90;;;28.00;1.00;;;;;;5047092;28;20979;-57
2022/07/29 08:45:03;;;;;;;17.83;13.63;;;28.10;1.00;;;;;;5049731;28;20439;-57
2022/07/29 08:47:30;;;;;;;18.53;12.10;;;28.00;1.00;;;;;;5048820;28;20203;-57
2022/07/29 08:49:55;;;;;;;17.03;11.23;;;28.20;1.00;;;;;;5054476;28;20959;-57
2022/07/29 08:52:23;;;;;;;15.63;13.20;;;28.40;1.00;;;;;;5050258;28;20426;-56
2022/07/29 08:54:50;;;;;;;19.17;12.93;;;;;;;;;;5055965;28;20183;-57
2022/07/29 08:57:16;;;;;;;16.10;13.70;;;28.70;1.00;;;;;;5056160;28;20997;-58
2022/07/29 08:59:45;;;;;;;17.17;13.20;;;29.00;1.00;;;;;;5055798;28;20445;-58
2022/07/29 09:02:24;;;;;;;18.93;12.53;;;29.20;1.00;;;;;;5056276;28;20481;-58
2022/07/29 09:04:50;;;;;;;18.77;12.80;;;29.40;1.00;;;;;;5053044;28;20528;-58
2022/07/29 09:07:17;;;;;;;15.30;12.27;;;29.50;1.00;;;;;;5056139;28;20470;-58
2022/07/29 09:09:44;;;;;;;19.80;13.17;;;29.70;1.00;;;;;;5056059;28;20253;-58
2022/07/29 09:12:13;;;;;;;13.93;12.47;;;30.00;1.00;;;;;;5056158;28;20446;-57
2022/07/29 09:14:40;;;;;;;15.37;11.70;;;31.50;1.00;;;;;;5060597;28;20430;-57
2022/07/29 09:17:06;;;;;;;21.73;11.53;;;30.40;1.00;;;;;;5074494;28;20445;-57
2022/07/29 09:19:34;;;;;;;11.23;10.23;;;30.60;1.00;;;;;;5076367;28;20449;-56
2022/07/29 09:22:02;;;;;;;15.87;11.50;;;31.10;1.00;;;;;;5070693;28;20882;-57
2022/07/29 09:24:41;;;;;;;14.07;11.30;;;30.80;1.00;;;;;;5075955;28;20429;-56
2022/07/29 09:27:26;;;;;;;13.23;10.57;;;30.80;1.00;;;;;;5075747;28;20439;-58
2022/07/29 09:30:06;;;;;;;11.60;9.67;;;30.60;1.00;;;;;;5055264;28;20449;-58
2022/07/29 09:32:33;;;;;;;12.63;10.30;;;30.80;1.00;;;;;;5055736;28;20537;-58
2022/07/29 09:35:16;;;;;;;12.97;11.20;;;29.70;1.00;;;;;;5055411;28;20462;-57
2022/07/29 09:37:43;;;;;;;14.33;11.53;;;31.10;1.00;;;;;;5063098;28;20456;-58
2022/07/29 09:40:17;;;;;;;14.00;10.90;;;30.80;1.00;;;;;;5054142;28;20454;-57
2022/07/29 09:42:45;;;;;;;19.07;11.70;;;30.80;1.00;;;;;;5054102;28;20561;-58
2022/07/29 09:45:11;;;;;;;15.33;10.90;;;;;;;;;;5053739;28;20532;-58
2022/07/29 09:47:46;;;;;;;12.37;9.90;;;30.60;1.00;;;;;;5054852;28;20535;-57
2022/07/29 09:50:12;;;;;;;14.73;10.67;;;30.60;1.00;;;;;;5055042;28;20446;-58
2022/07/29 09:52:49;;;;;;;11.17;10.00;;;30.50;1.00;;;;;;5054307;28;20470;-57
2022/07/29 09:55:15;;;;;;;11.73;10.20;;;;;;;;;;5054373;28;20192;-59
2022/07/29 09:57:42;;;;;;;15.37;11.87;;;31.00;1.00;;;;;;5055056;28;20519;-57
2022/07/29 10:00:09;;;;;;;18.93;13.07;;;31.10;1.00;;;;;;5062082;28;20454;-57
2022/07/29 10:02:36;;;;;;;15.03;13.43;;;31.20;1.00;;;;;;5053852;28;20465;-58
2022/07/29 10:05:04;;;;;;;14.70;11.60;;;31.10;1.00;;;;;;5048961;28;20531;-58
2022/07/29 10:07:43;;;;;;;14.80;11.40;;;30.90;1.00;;;;;;5051110;28;20784;-58
2022/07/29 10:10:10;;;;;;;13.97;11.40;;;31.10;1.00;;;;;;5051227;28;20446;-57
2022/07/29 10:12:55;;;;;;;11.93;9.47;;;31.10;1.00;;;;;;5051835;28;20454;-57
2022/07/29 10:15:26;;;;;;;13.23;11.20;;;31.30;1.00;;;;;;5054583;28;20833;-57
2022/07/29 10:17:53;;;;;;;13.40;10.00;;;31.40;1.00;;;;;;5050845;28;20474;-58
2022/07/29 10:20:20;;;;;;;13.37;10.40;;;31.20;1.00;;;;;;5050837;28;20497;-57
2022/07/29 10:22:48;;;;;;;11.40;9.90;;;31.30;1.00;;;;;;5063568;28;20433;-57
2022/07/29 10:25:15;;;;;;;13.60;10.90;;;31.30;1.00;;;;;;5072018;28;20457;-57
2022/07/29 10:27:42;;;;;;;17.20;12.43;;;31.50;1.00;;;;;;5051074;28;20490;-56
2022/07/29 10:30:09;;;;;;;13.23;11.30;;;31.40;1.00;;;;;;5055803;28;20507;-58
2022/07/29 10:32:55;;;;;;;12.53;11.37;;;31.30;1.00;;;;;;5071928;28;20521;-58
2022/07/29 10:35:32;;;;;;;11.27;10.17;;;31.30;1.00;;;;;;5049845;28;20488;-57
2022/07/29 10:38:12;;;;;;;11.23;9.90;;;31.40;1.00;;;;;;5052402;28;20534;-58
2022/07/29 10:43:36;;;;;;;10.20;6.77;;;30.70;1.00;;;;;;5051426;28;20495;-58
2022/07/29 10:46:08;;;;;;;7.60;6.80;;;30.50;1.00;;;;;;5050799;28;20503;-57
2022/07/29 10:48:34;;;;;;;8.97;6.53;;;30.60;1.00;;;;;;5051236;28;20470;-57
2022/07/29 10:51:02;;;;;;;10.07;5.60;;;30.70;1.00;;;;;;5051133;28;20771;-57
2022/07/29 10:53:49;;;;;;;9.70;5.33;;;31.00;1.00;;;;;;5051352;28;20510;-58
2022/07/29 10:56:30;;;;;;;5.07;4.47;;;31.00;1.00;;;;;;5051845;28;20470;-58
2022/07/29 10:59:20;;;;;;;6.00;4.47;;;30.80;1.00;;;;;;5050700;28;20931;-58
2022/07/29 11:01:50;;;;;;;5.40;4.50;;;30.70;1.00;;;;;;5050881;28;20426;-58
2022/07/29 11:04:45;;;;;;;6.10;3.23;;;30.80;1.00;;;;;;5061315;28;20452;-58
2022/07/29 11:07:12;;;;;;;4.90;3.37;;;31.10;1.00;;;;;;5066058;28;20560;-57
2022/07/29 11:09:38;;;;;;;6.40;3.93;;;30.90;1.00;;;;;;5053458;28;22451;-58
2022/07/29 11:12:24;;;;;;;4.80;3.07;;;30.90;1.00;;;;;;5050036;28;20469;-57
2022/07/29 11:15:00;;;;;;;4.97;3.57;;;30.90;1.00;;;;;;5050097;28;20882;-58
2022/07/29 11:17:26;;;;;;;4.90;3.20;;;31.20;1.00;;;;;;5049607;28;20965;-58
2022/07/29 11:19:51;;;;;;;3.97;3.23;;;31.20;1.00;;;;;;5050017;28;20553;-58
2022/07/29 11:22:37;;;;;;;3.93;3.53;;;31.20;1.00;;;;;;5049472;28;20537;-59
2022/07/29 11:25:16;;;;;;;4.43;3.37;;;33.90;1.00;;;;;;5048835;28;20187;-58
2022/07/29 11:27:43;;;;;;;4.77;3.67;;;31.40;1.00;;;;;;5050506;28;20466;-57
2022/07/29 11:30:11;;;;;;;4.07;3.20;;;31.50;1.00;;;;;;5050260;28;20962;-58
2022/07/29 11:32:39;;;;;;;4.13;3.43;;;31.50;1.00;;;;;;5047762;28;20446;-57
2022/07/29 11:35:20;;;;;;;4.00;3.57;;;31.50;1.00;;;;;;5049655;28;20474;-57
2022/07/29 11:37:47;;;;;;;4.03;3.70;;;31.40;1.00;;;;;;5052140;28;20521;-58
2022/07/29 11:40:15;;;;;;;4.07;3.67;;;31.30;1.00;;;;;;5049935;28;20449;-57
2022/07/29 11:42:43;;;;;;;4.63;3.10;;;31.40;1.00;;;;;;5054505;28;20745;-58
2022/07/29 11:45:18;;;;;;;3.80;3.20;;;31.50;1.00;;;;;;5055995;28;20463;-57
2022/07/29 11:47:49;;;;;;;4.33;4.03;;;31.60;1.00;;;;;;5065346;28;20466;-57
2022/07/29 11:50:33;;;;;;;6.17;3.50;;;31.70;1.00;;;;;;5048924;28;20797;-58
2022/07/29 11:53:00;;;;;;;5.27;3.57;;;31.70;1.00;;;;;;5049191;28;20583;-58
2022/07/29 11:55:26;;;;;;;4.03;3.57;;;31.70;1.00;;;;;;5049857;28;20445;-58
2022/07/29 11:58:00;;;;;;;6.33;3.50;;;32.00;1.00;;;;;;5047350;28;20447;-58
2022/07/29 12:00:25;;;;;;;5.87;3.77;;;32.00;1.00;;;;;;5048535;28;20215;-58
2022/07/29 12:02:51;;;;;;;3.47;3.13;;;31.90;1.00;;;;;;5055954;28;20454;-58
2022/07/29 12:05:18;;;;;;;3.77;3.37;;;32.40;1.00;;;;;;5050065;28;20231;-58
2022/07/29 12:07:43;;;;;;;4.53;4.13;;;32.30;1.00;;;;;;5031388;28;20218;-57
2022/07/29 12:10:10;;;;;;;4.90;3.50;;;;;;;;;;5048483;28;20455;-58
2022/07/29 12:12:35;;;;;;;4.43;3.87;;;32.50;1.00;;;;;;5049418;28;20443;-58
2022/07/29 12:15:17;;;;;;;4.07;3.33;;;32.70;1.00;;;;;;5048010;28;20455;-59
2022/07/29 12:17:43;;;;;;;3.87;3.47;;;;;;;;;;5050112;28;20180;-58
2022/07/29 12:20:09;;;;;;;4.63;3.60;;;33.20;1.00;;;;;;5051054;28;20458;-57
2022/07/29 12:22:40;;;;;;;3.80;3.40;;;33.20;1.00;;;;;;5046149;28;20454;-59
2022/07/29 12:25:15;;;;;;;5.73;3.87;;;33.10;1.00;;;;;;5046252;28;20278;-58
2022/07/29 12:27:42;;;;;;;5.13;4.50;;;32.80;1.00;;;;;;5052262;28;20475;-58
2022/07/29 12:30:10;;;;;;;4.07;3.77;;;33.20;1.00;;;;;;5057715;28;21145;-59
2022/07/29 12:32:40;;;;;;;4.10;3.73;;;33.50;1.00;;;;;;5067163;28;20438;-58
2022/07/29 12:35:07;;;;;;;5.80;3.90;;;33.30;1.00;;;;;;5064343;28;20990;-58
2022/07/29 12:37:35;;;;;;;8.90;3.50;;;33.00;1.00;;;;;;5060403;28;20489;-57
2022/07/29 12:40:02;;;;;;;4.23;3.53;;;32.90;1.00;;;;;;5049917;28;20434;-59
2022/07/29 12:42:28;;;;;;;3.40;3.10;;;32.70;1.00;;;;;;5049926;28;20529;-58
2022/07/29 12:44:53;;;;;;;4.90;4.40;;;32.80;1.00;;;;;;5049903;28;20569;-57
2022/07/29 12:47:20;;;;;;;4.37;3.93;;;32.70;1.00;;;;;;5050008;28;20211;-58
2022/07/29 12:49:46;;;;;;;4.00;3.70;;;32.50;1.00;;;;;;5049384;28;20175;-58
2022/07/29 12:52:25;;;;;;;6.70;3.83;;;32.60;1.00;;;;;;5049776;28;20535;-58
2022/07/29 12:54:50;;;;;;;8.13;3.73;;;32.70;1.00;;;;;;5049428;28;20441;-58
2022/07/29 12:57:17;;;;;;;5.10;4.60;;;32.60;1.00;;;;;;5049973;28;20450;-58
2022/07/29 12:59:43;;;;;;;6.30;4.60;;;32.80;1.00;;;;;;5049619;28;20184;-58
2022/07/29 13:02:22;;;;;;;7.47;4.63;;;32.80;1.00;;;;;;5049208;28;20557;-58
2022/07/29 13:04:57;;;;;;;5.93;4.40;;;32.70;1.00;;;;;;5048845;28;20271;-58
2022/07/29 13:07:28;;;;;;;4.20;3.90;;;32.90;1.00;;;;;;5049360;28;20750;-57
2022/07/29 13:09:54;;;;;;;7.53;4.70;;;33.00;1.00;;;;;;5049054;28;20772;-58
2022/07/29 13:12:20;;;;;;;5.20;3.83;;;33.20;1.00;;;;;;5049127;28;20427;-58
2022/07/29 13:14:50;;;;;;;6.10;4.10;;;33.20;1.00;;;;;;5049308;28;20449;-59
2022/07/29 13:17:22;;;;;;;4.50;4.10;;;33.20;1.00;;;;;;5049224;28;20431;-58